Decoded Metar for DIAP (ABIDJAN in IVORY COAST) (IATA:ABJ) | Meteo·Mobile Aviation Weather
aviador You're here:

DIAP Decoded Metar

ABIDJAN in IVORY COAST
Report Time2019-04-25 22:00:00
UTC Time2019-04-25 22:16:09
Flight Rules vfr VFR
Wind200° at 03 kt
W.Decomp.*RWY 21: 3.0 kt HW 0.3 kt LCW
Visibility9999 m
Phenomena:N/A
Clouds:Few 012 Hf
Expected CloudBase > 1,600 ft AGL from Temp-Dew spread
CeilingNone
Temp29°C (ISA +14)
Dew Point25°C (79% RH)
Heat Index34.5°C
QNH1012 hPa
Density Alt2,087 ft
Elevation26 ft
Report Wrong Elevation
Raw Report
DIAP 252200Z 20003KT 9999 FEW012 29/25 Q1012 NOSIG=

Extra information for DIAP:More info

Metar Taf Metar & Taf Last 4 Metars F.Rules Stats Wind Profile Meteogram Temp Stats Airport Information Weather charts Add Link Nearby VenuesMetar ALERT Operation Metar Decoded Social comments